sensor_id;sensor_type;location;lat;lon;timestamp;temperature;humidity
39483;DHT22;25682;48.438;1.482;2023-01-01T00:01:41;20.70;64.40
39483;DHT22;25682;48.438;1.482;2023-01-01T00:04:11;20.70;64.40
39483;DHT22;25682;48.438;1.482;2023-01-01T00:06:37;20.70;64.50
39483;DHT22;25682;48.438;1.482;2023-01-01T00:09:02;20.70;64.60
39483;DHT22;25682;48.438;1.482;2023-01-01T00:11:47;20.70;64.60
39483;DHT22;25682;48.438;1.482;2023-01-01T00:14:12;20.50;64.40
39483;DHT22;25682;48.438;1.482;2023-01-01T00:16:38;20.80;64.70
39483;DHT22;25682;48.438;1.482;2023-01-01T00:19:03;20.70;65.30
39483;DHT22;25682;48.438;1.482;2023-01-01T00:21:29;20.70;64.70
39483;DHT22;25682;48.438;1.482;2023-01-01T00:23:55;20.70;64.60
39483;DHT22;25682;48.438;1.482;2023-01-01T00:26:21;20.70;64.60
39483;DHT22;25682;48.438;1.482;2023-01-01T00:28:46;20.70;64.40
39483;DHT22;25682;48.438;1.482;2023-01-01T00:31:18;20.70;64.40
39483;DHT22;25682;48.438;1.482;2023-01-01T00:33:54;20.70;64.50
39483;DHT22;25682;48.438;1.482;2023-01-01T00:36:21;20.60;64.60
39483;DHT22;25682;48.438;1.482;2023-01-01T00:38:47;20.70;64.50
39483;DHT22;25682;48.438;1.482;2023-01-01T00:41:13;20.70;64.20
39483;DHT22;25682;48.438;1.482;2023-01-01T00:43:40;20.70;64.40
39483;DHT22;25682;48.438;1.482;2023-01-01T00:46:06;20.90;64.50
39483;DHT22;25682;48.438;1.482;2023-01-01T00:48:32;20.70;64.30
39483;DHT22;25682;48.438;1.482;2023-01-01T00:50:59;20.70;64.10
39483;DHT22;25682;48.438;1.482;2023-01-01T00:53:24;20.70;63.90
39483;DHT22;25682;48.438;1.482;2023-01-01T00:55:51;20.70;63.70
39483;DHT22;25682;48.438;1.482;2023-01-01T00:58:18;20.70;63.70
39483;DHT22;25682;48.438;1.482;2023-01-01T01:00:44;20.60;63.60
39483;DHT22;25682;48.438;1.482;2023-01-01T01:03:12;20.70;63.50
39483;DHT22;25682;48.438;1.482;2023-01-01T01:06:15;20.70;63.30
39483;DHT22;25682;48.438;1.482;2023-01-01T01:08:41;20.70;63.10
39483;DHT22;25682;48.438;1.482;2023-01-01T01:11:11;20.80;63.10
39483;DHT22;25682;48.438;1.482;2023-01-01T01:13:38;20.80;62.90
39483;DHT22;25682;48.438;1.482;2023-01-01T01:16:28;20.80;62.80
39483;DHT22;25682;48.438;1.482;2023-01-01T01:18:56;20.80;62.70
39483;DHT22;25682;48.438;1.482;2023-01-01T01:21:23;20.90;62.80
39483;DHT22;25682;48.438;1.482;2023-01-01T01:23:49;20.80;62.60
39483;DHT22;25682;48.438;1.482;2023-01-01T01:26:17;20.90;62.60
39483;DHT22;25682;48.438;1.482;2023-01-01T01:28:43;20.90;62.70
39483;DHT22;25682;48.438;1.482;2023-01-01T01:31:09;20.80;62.60
39483;DHT22;25682;48.438;1.482;2023-01-01T01:33:35;20.80;62.70
39483;DHT22;25682;48.438;1.482;2023-01-01T01:36:02;20.80;62.70
39483;DHT22;25682;48.438;1.482;2023-01-01T01:38:28;20.80;62.70
39483;DHT22;25682;48.438;1.482;2023-01-01T01:40:54;20.70;62.70
39483;DHT22;25682;48.438;1.482;2023-01-01T01:43:24;20.80;62.80
39483;DHT22;25682;48.438;1.482;2023-01-01T01:46:00;21.00;63.10
39483;DHT22;25682;48.438;1.482;2023-01-01T01:48:26;20.70;63.00
39483;DHT22;25682;48.438;1.482;2023-01-01T01:50:53;20.70;63.00
39483;DHT22;25682;48.438;1.482;2023-01-01T01:53:22;20.70;63.00
39483;DHT22;25682;48.438;1.482;2023-01-01T01:55:56;20.70;63.00
39483;DHT22;25682;48.438;1.482;2023-01-01T01:58:24;20.70;63.30
39483;DHT22;25682;48.438;1.482;2023-01-01T02:00:51;20.70;63.30
39483;DHT22;25682;48.438;1.482;2023-01-01T02:03:20;20.60;63.30
39483;DHT22;25682;48.438;1.482;2023-01-01T02:05:48;20.70;63.30
39483;DHT22;25682;48.438;1.482;2023-01-01T02:08:14;20.60;63.30
39483;DHT22;25682;48.438;1.482;2023-01-01T02:10:40;20.60;63.40
39483;DHT22;25682;48.438;1.482;2023-01-01T02:13:06;20.60;63.40
39483;DHT22;25682;48.438;1.482;2023-01-01T02:15:50;20.60;63.40
39483;DHT22;25682;48.438;1.482;2023-01-01T02:18:23;20.60;63.40
39483;DHT22;25682;48.438;1.482;2023-01-01T02:21:02;20.60;63.50
39483;DHT22;25682;48.438;1.482;2023-01-01T02:23:44;20.60;63.60
39483;DHT22;25682;48.438;1.482;2023-01-01T02:26:26;20.60;63.60
39483;DHT22;25682;48.438;1.482;2023-01-01T02:29:25;20.60;63.70
39483;DHT22;25682;48.438;1.482;2023-01-01T02:32:09;20.60;63.70
39483;DHT22;25682;48.438;1.482;2023-01-01T02:34:58;20.50;63.70
39483;DHT22;25682;48.438;1.482;2023-01-01T02:37:47;20.60;63.80
39483;DHT22;25682;48.438;1.482;2023-01-01T02:40:13;20.50;63.80
39483;DHT22;25682;48.438;1.482;2023-01-01T02:42:39;20.50;64.00
39483;DHT22;25682;48.438;1.482;2023-01-01T02:45:06;20.60;64.10
39483;DHT22;25682;48.438;1.482;2023-01-01T02:47:32;20.50;64.10
39483;DHT22;25682;48.438;1.482;2023-01-01T02:49:59;20.50;64.00
39483;DHT22;25682;48.438;1.482;2023-01-01T02:52:48;20.50;64.10
39483;DHT22;25682;48.438;1.482;2023-01-01T02:55:30;20.60;64.10
39483;DHT22;25682;48.438;1.482;2023-01-01T03:01:56;20.50;64.10
39483;DHT22;25682;48.438;1.482;2023-01-01T03:04:25;20.50;64.10
39483;DHT22;25682;48.438;1.482;2023-01-01T03:06:55;20.50;64.20
39483;DHT22;25682;48.438;1.482;2023-01-01T03:12:24;20.50;64.20
39483;DHT22;25682;48.438;1.482;2023-01-01T03:15:09;20.50;64.20
39483;DHT22;25682;48.438;1.482;2023-01-01T03:20:44;20.50;64.30
39483;DHT22;25682;48.438;1.482;2023-01-01T03:23:15;20.40;64.30
39483;DHT22;25682;48.438;1.482;2023-01-01T03:25:45;20.70;64.60
39483;DHT22;25682;48.438;1.482;2023-01-01T03:28:26;20.40;64.30
39483;DHT22;25682;48.438;1.482;2023-01-01T03:30:53;20.40;64.30
39483;DHT22;25682;48.438;1.482;2023-01-01T03:33:32;20.40;64.30
39483;DHT22;25682;48.438;1.482;2023-01-01T03:36:03;20.40;64.40
39483;DHT22;25682;48.438;1.482;2023-01-01T03:41:04;20.40;64.40
39483;DHT22;25682;48.438;1.482;2023-01-01T03:46:29;20.40;64.40
39483;DHT22;25682;48.438;1.482;2023-01-01T03:48:56;20.40;64.50
39483;DHT22;25682;48.438;1.482;2023-01-01T03:57:49;20.40;64.30
39483;DHT22;25682;48.438;1.482;2023-01-01T04:00:19;20.40;64.40
39483;DHT22;25682;48.438;1.482;2023-01-01T04:02:53;20.40;64.40
39483;DHT22;25682;48.438;1.482;2023-01-01T04:05:20;20.40;64.40
39483;DHT22;25682;48.438;1.482;2023-01-01T04:07:46;20.40;64.40
39483;DHT22;25682;48.438;1.482;2023-01-01T04:10:13;20.40;64.30
39483;DHT22;25682;48.438;1.482;2023-01-01T04:12:54;20.40;64.30
39483;DHT22;25682;48.438;1.482;2023-01-01T04:15:24;20.40;64.30
39483;DHT22;25682;48.438;1.482;2023-01-01T04:17:51;20.40;64.30
39483;DHT22;25682;48.438;1.482;2023-01-01T04:20:18;20.40;64.30
39483;DHT22;25682;48.438;1.482;2023-01-01T04:22:44;20.40;64.30
39483;DHT22;25682;48.438;1.482;2023-01-01T04:25:10;20.40;64.30
39483;DHT22;25682;48.438;1.482;2023-01-01T04:27:37;20.40;64.30
39483;DHT22;25682;48.438;1.482;2023-01-01T04:30:04;20.40;64.30
39483;DHT22;25682;48.438;1.482;2023-01-01T04:32:30;20.40;64.30
39483;DHT22;25682;48.438;1.482;2023-01-01T04:34:56;20.40;64.30
39483;DHT22;25682;48.438;1.482;2023-01-01T04:37:22;20.40;64.40
39483;DHT22;25682;48.438;1.482;2023-01-01T04:39:47;20.40;64.40
39483;DHT22;25682;48.438;1.482;2023-01-01T04:42:13;20.40;64.30
39483;DHT22;25682;48.438;1.482;2023-01-01T04:44:38;20.30;64.30
39483;DHT22;25682;48.438;1.482;2023-01-01T04:47:04;20.40;64.30
39483;DHT22;25682;48.438;1.482;2023-01-01T04:49:30;20.40;64.30
39483;DHT22;25682;48.438;1.482;2023-01-01T04:51:55;20.40;64.30
39483;DHT22;25682;48.438;1.482;2023-01-01T04:54:21;20.30;64.20
39483;DHT22;25682;48.438;1.482;2023-01-01T04:56:46;20.40;64.30
39483;DHT22;25682;48.438;1.482;2023-01-01T04:59:12;20.40;64.30
39483;DHT22;25682;48.438;1.482;2023-01-01T05:01:38;20.30;64.20
39483;DHT22;25682;48.438;1.482;2023-01-01T05:04:03;20.40;64.20
39483;DHT22;25682;48.438;1.482;2023-01-01T05:06:29;20.40;64.20
39483;DHT22;25682;48.438;1.482;2023-01-01T05:08:56;20.40;64.20
39483;DHT22;25682;48.438;1.482;2023-01-01T05:11:29;20.40;64.20
39483;DHT22;25682;48.438;1.482;2023-01-01T05:13:57;20.40;64.20
39483;DHT22;25682;48.438;1.482;2023-01-01T05:16:26;20.40;64.20
39483;DHT22;25682;48.438;1.482;2023-01-01T05:18:52;20.40;64.20
39483;DHT22;25682;48.438;1.482;2023-01-01T05:21:20;20.40;64.30
39483;DHT22;25682;48.438;1.482;2023-01-01T05:23:47;20.40;64.30
39483;DHT22;25682;48.438;1.482;2023-01-01T05:26:18;20.30;64.30
39483;DHT22;25682;48.438;1.482;2023-01-01T05:28:45;20.30;64.30
39483;DHT22;25682;48.438;1.482;2023-01-01T05:31:19;20.30;64.30
39483;DHT22;25682;48.438;1.482;2023-01-01T05:33:45;20.40;64.30
39483;DHT22;25682;48.438;1.482;2023-01-01T05:36:17;20.30;63.90
39483;DHT22;25682;48.438;1.482;2023-01-01T05:38:43;20.40;63.90
39483;DHT22;25682;48.438;1.482;2023-01-01T05:41:11;20.30;64.40
39483;DHT22;25682;48.438;1.482;2023-01-01T05:43:37;20.30;64.40
39483;DHT22;25682;48.438;1.482;2023-01-01T05:46:06;20.30;64.50
39483;DHT22;25682;48.438;1.482;2023-01-01T05:48:32;20.30;64.50
39483;DHT22;25682;48.438;1.482;2023-01-01T05:51:06;20.30;64.70
39483;DHT22;25682;48.438;1.482;2023-01-01T05:53:32;20.30;64.80
39483;DHT22;25682;48.438;1.482;2023-01-01T05:55:58;20.30;64.80
39483;DHT22;25682;48.438;1.482;2023-01-01T05:58:25;20.30;64.80
39483;DHT22;25682;48.438;1.482;2023-01-01T06:00:51;20.30;64.80
39483;DHT22;25682;48.438;1.482;2023-01-01T06:03:17;20.30;64.80
39483;DHT22;25682;48.438;1.482;2023-01-01T06:05:42;20.30;64.90
39483;DHT22;25682;48.438;1.482;2023-01-01T06:08:08;20.30;64.90
39483;DHT22;25682;48.438;1.482;2023-01-01T06:10:34;20.30;65.00
39483;DHT22;25682;48.438;1.482;2023-01-01T06:12:59;20.40;65.00
39483;DHT22;25682;48.438;1.482;2023-01-01T06:15:26;20.40;65.00
39483;DHT22;25682;48.438;1.482;2023-01-01T06:17:52;20.40;64.90
39483;DHT22;25682;48.438;1.482;2023-01-01T06:20:18;20.30;64.70
39483;DHT22;25682;48.438;1.482;2023-01-01T06:22:44;20.30;64.70
39483;DHT22;25682;48.438;1.482;2023-01-01T06:25:10;20.30;64.70
39483;DHT22;25682;48.438;1.482;2023-01-01T06:27:35;20.30;64.70
39483;DHT22;25682;48.438;1.482;2023-01-01T06:30:05;20.30;64.60
39483;DHT22;25682;48.438;1.482;2023-01-01T06:32:31;20.30;64.50
39483;DHT22;25682;48.438;1.482;2023-01-01T06:34:57;20.30;64.40
39483;DHT22;25682;48.438;1.482;2023-01-01T06:37:23;20.40;64.50
39483;DHT22;25682;48.438;1.482;2023-01-01T06:39:49;20.30;64.50
39483;DHT22;25682;48.438;1.482;2023-01-01T06:42:14;20.30;64.40
39483;DHT22;25682;48.438;1.482;2023-01-01T06:44:40;20.40;64.40
39483;DHT22;25682;48.438;1.482;2023-01-01T06:47:06;20.30;64.30
39483;DHT22;25682;48.438;1.482;2023-01-01T06:49:31;20.30;64.30
39483;DHT22;25682;48.438;1.482;2023-01-01T06:51:57;20.30;64.30
39483;DHT22;25682;48.438;1.482;2023-01-01T06:54:23;20.30;64.20
39483;DHT22;25682;48.438;1.482;2023-01-01T06:56:48;20.40;64.20
39483;DHT22;25682;48.438;1.482;2023-01-01T06:59:15;20.40;64.10
39483;DHT22;25682;48.438;1.482;2023-01-01T07:01:41;20.40;64.00
39483;DHT22;25682;48.438;1.482;2023-01-01T07:04:10;20.30;64.00
39483;DHT22;25682;48.438;1.482;2023-01-01T07:06:36;20.40;64.10
39483;DHT22;25682;48.438;1.482;2023-01-01T07:09:02;20.40;64.00
39483;DHT22;25682;48.438;1.482;2023-01-01T07:11:28;20.40;64.10
39483;DHT22;25682;48.438;1.482;2023-01-01T07:13:54;20.40;64.00
39483;DHT22;25682;48.438;1.482;2023-01-01T07:16:20;20.40;64.00
39483;DHT22;25682;48.438;1.482;2023-01-01T07:18:46;20.40;64.10
39483;DHT22;25682;48.438;1.482;2023-01-01T07:21:40;20.40;64.30
39483;DHT22;25682;48.438;1.482;2023-01-01T07:24:10;20.40;64.10
39483;DHT22;25682;48.438;1.482;2023-01-01T07:26:37;20.40;64.70
39483;DHT22;25682;48.438;1.482;2023-01-01T07:29:02;20.40;64.80
39483;DHT22;25682;48.438;1.482;2023-01-01T07:31:28;20.40;64.80
39483;DHT22;25682;48.438;1.482;2023-01-01T07:33:54;20.40;64.70
39483;DHT22;25682;48.438;1.482;2023-01-01T07:36:19;20.40;64.80
39483;DHT22;25682;48.438;1.482;2023-01-01T07:38:45;20.40;65.00
39483;DHT22;25682;48.438;1.482;2023-01-01T07:41:12;20.40;64.90
39483;DHT22;25682;48.438;1.482;2023-01-01T07:43:37;20.40;64.80
39483;DHT22;25682;48.438;1.482;2023-01-01T07:46:03;20.40;64.80
39483;DHT22;25682;48.438;1.482;2023-01-01T07:48:29;20.50;64.80
39483;DHT22;25682;48.438;1.482;2023-01-01T07:50:55;20.40;64.80
39483;DHT22;25682;48.438;1.482;2023-01-01T07:53:20;20.40;65.00
39483;DHT22;25682;48.438;1.482;2023-01-01T07:55:46;20.40;65.10
39483;DHT22;25682;48.438;1.482;2023-01-01T07:58:12;20.40;65.20
39483;DHT22;25682;48.438;1.482;2023-01-01T08:00:38;20.40;65.40
39483;DHT22;25682;48.438;1.482;2023-01-01T08:03:04;20.40;65.70
39483;DHT22;25682;48.438;1.482;2023-01-01T08:05:30;20.40;66.00
39483;DHT22;25682;48.438;1.482;2023-01-01T08:07:56;20.40;65.50
39483;DHT22;25682;48.438;1.482;2023-01-01T08:10:22;20.40;65.60
39483;DHT22;25682;48.438;1.482;2023-01-01T08:12:48;20.40;66.40
39483;DHT22;25682;48.438;1.482;2023-01-01T08:15:14;20.40;65.70
39483;DHT22;25682;48.438;1.482;2023-01-01T08:17:40;20.40;65.70
39483;DHT22;25682;48.438;1.482;2023-01-01T08:20:06;20.40;65.60
39483;DHT22;25682;48.438;1.482;2023-01-01T08:22:32;20.50;65.60
39483;DHT22;25682;48.438;1.482;2023-01-01T08:24:58;20.50;65.60
39483;DHT22;25682;48.438;1.482;2023-01-01T08:27:24;20.50;66.00
39483;DHT22;25682;48.438;1.482;2023-01-01T08:29:49;20.50;65.30
39483;DHT22;25682;48.438;1.482;2023-01-01T08:32:15;20.50;65.30
39483;DHT22;25682;48.438;1.482;2023-01-01T08:34:40;20.40;65.20
39483;DHT22;25682;48.438;1.482;2023-01-01T08:37:11;20.50;65.20
39483;DHT22;25682;48.438;1.482;2023-01-01T08:39:37;20.50;65.10
39483;DHT22;25682;48.438;1.482;2023-01-01T08:42:02;20.40;64.90
39483;DHT22;25682;48.438;1.482;2023-01-01T08:44:28;20.40;64.90
39483;DHT22;25682;48.438;1.482;2023-01-01T08:46:54;20.40;64.80
39483;DHT22;25682;48.438;1.482;2023-01-01T08:49:19;20.40;64.70
39483;DHT22;25682;48.438;1.482;2023-01-01T08:51:45;20.40;64.70
39483;DHT22;25682;48.438;1.482;2023-01-01T08:54:10;20.40;64.60
39483;DHT22;25682;48.438;1.482;2023-01-01T08:56:36;20.40;64.60
39483;DHT22;25682;48.438;1.482;2023-01-01T08:59:02;20.40;64.60
39483;DHT22;25682;48.438;1.482;2023-01-01T09:01:27;20.40;64.50
39483;DHT22;25682;48.438;1.482;2023-01-01T09:03:53;20.30;64.40
39483;DHT22;25682;48.438;1.482;2023-01-01T09:06:19;20.40;64.40
39483;DHT22;25682;48.438;1.482;2023-01-01T09:08:45;20.40;64.30
39483;DHT22;25682;48.438;1.482;2023-01-01T09:11:26;20.40;64.30
39483;DHT22;25682;48.438;1.482;2023-01-01T09:13:52;20.50;64.20
39483;DHT22;25682;48.438;1.482;2023-01-01T09:16:19;20.40;64.10
39483;DHT22;25682;48.438;1.482;2023-01-01T09:18:44;20.40;64.00
39483;DHT22;25682;48.438;1.482;2023-01-01T09:21:10;20.40;64.00
39483;DHT22;25682;48.438;1.482;2023-01-01T09:23:36;20.40;64.00
39483;DHT22;25682;48.438;1.482;2023-01-01T09:26:06;20.40;64.00
39483;DHT22;25682;48.438;1.482;2023-01-01T09:28:32;20.40;63.90
39483;DHT22;25682;48.438;1.482;2023-01-01T09:30:58;20.40;63.90
39483;DHT22;25682;48.438;1.482;2023-01-01T09:33:23;20.40;63.80
39483;DHT22;25682;48.438;1.482;2023-01-01T09:35:49;20.40;63.80
39483;DHT22;25682;48.438;1.482;2023-01-01T09:38:15;20.40;63.80
39483;DHT22;25682;48.438;1.482;2023-01-01T09:41:02;20.40;63.80
39483;DHT22;25682;48.438;1.482;2023-01-01T09:46:16;20.40;63.80
39483;DHT22;25682;48.438;1.482;2023-01-01T09:48:58;20.40;63.80
39483;DHT22;25682;48.438;1.482;2023-01-01T09:51:29;20.40;63.90
39483;DHT22;25682;48.438;1.482;2023-01-01T09:54:27;20.40;64.10
39483;DHT22;25682;48.438;1.482;2023-01-01T09:56:56;20.40;64.20
39483;DHT22;25682;48.438;1.482;2023-01-01T09:59:23;20.40;64.20
39483;DHT22;25682;48.438;1.482;2023-01-01T10:02:31;20.50;64.30
39483;DHT22;25682;48.438;1.482;2023-01-01T10:06:06;20.50;64.20
39483;DHT22;25682;48.438;1.482;2023-01-01T10:15:56;20.50;64.40
39483;DHT22;25682;48.438;1.482;2023-01-01T10:18:28;20.80;64.50
39483;DHT22;25682;48.438;1.482;2023-01-01T10:21:17;20.50;64.40
39483;DHT22;25682;48.438;1.482;2023-01-01T10:23:56;20.50;64.20
39483;DHT22;25682;48.438;1.482;2023-01-01T10:26:25;20.50;64.20
39483;DHT22;25682;48.438;1.482;2023-01-01T10:29:05;20.50;64.20
39483;DHT22;25682;48.438;1.482;2023-01-01T10:31:39;20.50;64.20
39483;DHT22;25682;48.438;1.482;2023-01-01T10:34:35;20.50;64.20
39483;DHT22;25682;48.438;1.482;2023-01-01T10:37:01;20.50;64.20
39483;DHT22;25682;48.438;1.482;2023-01-01T10:39:27;20.50;64.10
39483;DHT22;25682;48.438;1.482;2023-01-01T10:41:53;20.50;64.00
39483;DHT22;25682;48.438;1.482;2023-01-01T10:44:28;20.50;63.90
39483;DHT22;25682;48.438;1.482;2023-01-01T10:46:59;20.50;63.80
39483;DHT22;25682;48.438;1.482;2023-01-01T10:49:26;20.50;63.80
39483;DHT22;25682;48.438;1.482;2023-01-01T10:51:52;20.50;63.80
39483;DHT22;25682;48.438;1.482;2023-01-01T11:29:26;20.40;62.60
39483;DHT22;25682;48.438;1.482;2023-01-01T11:31:53;20.50;63.20
39483;DHT22;25682;48.438;1.482;2023-01-01T11:34:39;20.40;63.10
39483;DHT22;25682;48.438;1.482;2023-01-01T11:42:21;20.50;63.20
39483;DHT22;25682;48.438;1.482;2023-01-01T11:44:54;20.60;63.70
39483;DHT22;25682;48.438;1.482;2023-01-01T11:47:33;20.50;63.70
39483;DHT22;25682;48.438;1.482;2023-01-01T11:52:39;20.50;63.80
39483;DHT22;25682;48.438;1.482;2023-01-01T11:55:36;20.40;63.80
39483;DHT22;25682;48.438;1.482;2023-01-01T12:00:38;20.40;64.70
39483;DHT22;25682;48.438;1.482;2023-01-01T12:03:28;20.40;65.00
39483;DHT22;25682;48.438;1.482;2023-01-01T12:06:20;20.50;65.30
39483;DHT22;25682;48.438;1.482;2023-01-01T12:11:51;20.50;65.60
39483;DHT22;25682;48.438;1.482;2023-01-01T12:16:53;20.40;65.70
39483;DHT22;25682;48.438;1.482;2023-01-01T12:21:57;20.50;65.70
39483;DHT22;25682;48.438;1.482;2023-01-01T12:24:26;20.50;65.60
39483;DHT22;25682;48.438;1.482;2023-01-01T12:27:15;20.50;65.50
39483;DHT22;25682;48.438;1.482;2023-01-01T12:30:18;20.50;65.50
39483;DHT22;25682;48.438;1.482;2023-01-01T12:35:59;20.50;65.40
39483;DHT22;25682;48.438;1.482;2023-01-01T12:41:42;20.50;65.20
39483;DHT22;25682;48.438;1.482;2023-01-01T12:53:56;20.50;65.70
39483;DHT22;25682;48.438;1.482;2023-01-01T12:56:26;20.50;66.00
39483;DHT22;25682;48.438;1.482;2023-01-01T12:58:59;20.50;66.60
39483;DHT22;25682;48.438;1.482;2023-01-01T13:01:29;20.50;67.20
39483;DHT22;25682;48.438;1.482;2023-01-01T13:04:00;20.50;68.00
39483;DHT22;25682;48.438;1.482;2023-01-01T13:09:29;20.50;68.50
39483;DHT22;25682;48.438;1.482;2023-01-01T13:12:06;20.50;68.60
39483;DHT22;25682;48.438;1.482;2023-01-01T13:14:42;20.60;68.80
39483;DHT22;25682;48.438;1.482;2023-01-01T13:19:58;20.50;68.90
39483;DHT22;25682;48.438;1.482;2023-01-01T13:25:18;20.60;68.70
39483;DHT22;25682;48.438;1.482;2023-01-01T13:38:59;20.60;67.90
39483;DHT22;25682;48.438;1.482;2023-01-01T13:47:07;20.60;67.70
39483;DHT22;25682;48.438;1.482;2023-01-01T13:50:49;20.70;67.50
39483;DHT22;25682;48.438;1.482;2023-01-01T13:53:22;20.70;66.80
39483;DHT22;25682;48.438;1.482;2023-01-01T13:56:10;20.70;67.20
39483;DHT22;25682;48.438;1.482;2023-01-01T14:02:15;20.70;67.10
39483;DHT22;25682;48.438;1.482;2023-01-01T14:09:43;20.70;65.90
39483;DHT22;25682;48.438;1.482;2023-01-01T14:12:19;20.70;66.00
39483;DHT22;25682;48.438;1.482;2023-01-01T14:14:46;20.70;66.10
39483;DHT22;25682;48.438;1.482;2023-01-01T14:17:15;20.70;66.20
39483;DHT22;25682;48.438;1.482;2023-01-01T14:19:41;20.70;66.30
39483;DHT22;25682;48.438;1.482;2023-01-01T14:22:09;20.70;66.30
39483;DHT22;25682;48.438;1.482;2023-01-01T14:24:44;20.80;66.20
39483;DHT22;25682;48.438;1.482;2023-01-01T14:27:17;20.80;66.10
39483;DHT22;25682;48.438;1.482;2023-01-01T14:29:46;20.80;66.10
39483;DHT22;25682;48.438;1.482;2023-01-01T14:32:21;20.80;66.10
39483;DHT22;25682;48.438;1.482;2023-01-01T14:34:57;20.80;66.00
39483;DHT22;25682;48.438;1.482;2023-01-01T14:37:24;20.80;66.00
39483;DHT22;25682;48.438;1.482;2023-01-01T14:40:27;20.80;66.00
39483;DHT22;25682;48.438;1.482;2023-01-01T14:43:00;20.80;65.80
39483;DHT22;25682;48.438;1.482;2023-01-01T14:45:29;20.80;66.00
39483;DHT22;25682;48.438;1.482;2023-01-01T14:47:56;20.70;66.00
39483;DHT22;25682;48.438;1.482;2023-01-01T14:50:25;20.80;66.00
39483;DHT22;25682;48.438;1.482;2023-01-01T14:52:59;20.80;66.00
39483;DHT22;25682;48.438;1.482;2023-01-01T14:55:29;20.80;66.00
39483;DHT22;25682;48.438;1.482;2023-01-01T14:57:57;20.80;65.90
39483;DHT22;25682;48.438;1.482;2023-01-01T15:00:30;20.80;65.80
39483;DHT22;25682;48.438;1.482;2023-01-01T15:03:14;20.80;65.70
39483;DHT22;25682;48.438;1.482;2023-01-01T15:05:42;20.80;65.60
39483;DHT22;25682;48.438;1.482;2023-01-01T15:08:21;20.80;65.70
39483;DHT22;25682;48.438;1.482;2023-01-01T15:10:48;20.80;65.70
39483;DHT22;25682;48.438;1.482;2023-01-01T15:13:25;20.80;65.70
39483;DHT22;25682;48.438;1.482;2023-01-01T15:15:54;20.80;65.70
39483;DHT22;25682;48.438;1.482;2023-01-01T15:21:15;20.70;65.60
39483;DHT22;25682;48.438;1.482;2023-01-01T15:24:03;20.70;65.60
39483;DHT22;25682;48.438;1.482;2023-01-01T15:26:35;20.70;65.60
39483;DHT22;25682;48.438;1.482;2023-01-01T15:29:07;20.70;65.70
39483;DHT22;25682;48.438;1.482;2023-01-01T15:31:37;20.60;66.20
39483;DHT22;25682;48.438;1.482;2023-01-01T15:34:04;20.60;65.60
39483;DHT22;25682;48.438;1.482;2023-01-01T15:36:30;20.60;65.60
39483;DHT22;25682;48.438;1.482;2023-01-01T15:38:56;20.60;65.60
39483;DHT22;25682;48.438;1.482;2023-01-01T15:41:41;20.70;65.60
39483;DHT22;25682;48.438;1.482;2023-01-01T15:46:49;20.70;65.50
39483;DHT22;25682;48.438;1.482;2023-01-01T15:49:26;20.70;65.70
39483;DHT22;25682;48.438;1.482;2023-01-01T15:51:57;20.60;64.80
39483;DHT22;25682;48.438;1.482;2023-01-01T15:54:25;20.70;65.40
39483;DHT22;25682;48.438;1.482;2023-01-01T15:56:51;20.50;65.70
39483;DHT22;25682;48.438;1.482;2023-01-01T15:59:34;20.50;65.90
39483;DHT22;25682;48.438;1.482;2023-01-01T16:02:26;20.50;66.10
39483;DHT22;25682;48.438;1.482;2023-01-01T16:04:50;20.50;66.20
39483;DHT22;25682;48.438;1.482;2023-01-01T16:07:19;20.50;66.30
39483;DHT22;25682;48.438;1.482;2023-01-01T16:09:51;20.50;65.90
39483;DHT22;25682;48.438;1.482;2023-01-01T16:12:17;20.50;66.10
39483;DHT22;25682;48.438;1.482;2023-01-01T16:14:43;20.60;66.30
39483;DHT22;25682;48.438;1.482;2023-01-01T16:17:15;20.60;66.40
39483;DHT22;25682;48.438;1.482;2023-01-01T16:19:41;20.90;66.60
39483;DHT22;25682;48.438;1.482;2023-01-01T16:22:14;20.60;66.50
39483;DHT22;25682;48.438;1.482;2023-01-01T16:24:41;20.50;66.50
39483;DHT22;25682;48.438;1.482;2023-01-01T16:27:07;20.50;66.50
39483;DHT22;25682;48.438;1.482;2023-01-01T16:29:33;20.50;66.50
39483;DHT22;25682;48.438;1.482;2023-01-01T16:31:59;20.50;66.40
39483;DHT22;25682;48.438;1.482;2023-01-01T16:34:24;20.50;66.40
39483;DHT22;25682;48.438;1.482;2023-01-01T16:36:50;20.50;66.30
39483;DHT22;25682;48.438;1.482;2023-01-01T16:39:15;20.50;66.20
39483;DHT22;25682;48.438;1.482;2023-01-01T16:41:42;20.50;66.20
39483;DHT22;25682;48.438;1.482;2023-01-01T16:44:17;20.50;66.10
39483;DHT22;25682;48.438;1.482;2023-01-01T16:46:43;20.50;66.10
39483;DHT22;25682;48.438;1.482;2023-01-01T16:49:08;20.30;66.60
39483;DHT22;25682;48.438;1.482;2023-01-01T16:51:34;20.50;66.10
39483;DHT22;25682;48.438;1.482;2023-01-01T16:54:00;20.50;66.00
39483;DHT22;25682;48.438;1.482;2023-01-01T16:56:26;20.50;66.00
39483;DHT22;25682;48.438;1.482;2023-01-01T16:58:53;20.50;65.90
39483;DHT22;25682;48.438;1.482;2023-01-01T17:01:19;20.50;65.90
39483;DHT22;25682;48.438;1.482;2023-01-01T17:03:45;20.50;65.90
39483;DHT22;25682;48.438;1.482;2023-01-01T17:06:11;20.50;65.80
39483;DHT22;25682;48.438;1.482;2023-01-01T17:08:37;20.50;65.80
39483;DHT22;25682;48.438;1.482;2023-01-01T17:11:08;20.50;65.80
39483;DHT22;25682;48.438;1.482;2023-01-01T17:13:36;20.50;65.30
39483;DHT22;25682;48.438;1.482;2023-01-01T17:16:02;20.50;65.50
39483;DHT22;25682;48.438;1.482;2023-01-01T17:18:28;20.50;65.60
39483;DHT22;25682;48.438;1.482;2023-01-01T17:20:54;20.50;65.80
39483;DHT22;25682;48.438;1.482;2023-01-01T17:23:19;20.50;65.80
39483;DHT22;25682;48.438;1.482;2023-01-01T17:25:45;20.60;65.80
39483;DHT22;25682;48.438;1.482;2023-01-01T17:28:11;20.60;65.80
39483;DHT22;25682;48.438;1.482;2023-01-01T17:30:36;20.60;65.70
39483;DHT22;25682;48.438;1.482;2023-01-01T17:33:02;20.70;65.80
39483;DHT22;25682;48.438;1.482;2023-01-01T17:35:29;20.70;65.70
39483;DHT22;25682;48.438;1.482;2023-01-01T17:37:55;20.70;65.70
39483;DHT22;25682;48.438;1.482;2023-01-01T17:40:20;20.70;65.60
39483;DHT22;25682;48.438;1.482;2023-01-01T17:42:46;20.60;65.60
39483;DHT22;25682;48.438;1.482;2023-01-01T17:45:11;20.70;65.60
39483;DHT22;25682;48.438;1.482;2023-01-01T17:47:37;20.70;65.50
39483;DHT22;25682;48.438;1.482;2023-01-01T17:50:03;20.70;65.50
39483;DHT22;25682;48.438;1.482;2023-01-01T17:52:29;20.70;65.50
39483;DHT22;25682;48.438;1.482;2023-01-01T17:54:54;20.70;65.60
39483;DHT22;25682;48.438;1.482;2023-01-01T17:57:20;20.70;65.60
39483;DHT22;25682;48.438;1.482;2023-01-01T17:59:46;20.70;65.80
39483;DHT22;25682;48.438;1.482;2023-01-01T18:02:13;20.70;65.90
39483;DHT22;25682;48.438;1.482;2023-01-01T18:04:39;20.70;65.80
39483;DHT22;25682;48.438;1.482;2023-01-01T18:07:05;20.70;65.70
39483;DHT22;25682;48.438;1.482;2023-01-01T18:09:31;20.70;65.80